Latest Weather Observations for Mount Lofty

IDS60901

Issued at 4:01 pm CST Thursday 28 July 2016 (issued every 10 minutes, with the page automatically refreshed every 10 minutes)

About weather observations | Map of Adelaide area stations | Latest observations for Adelaide area | Other Formats
Station Details ID: 023842 Name: MOUNT LOFTY Lat: -34.98 Lon: 138.71 Height: 685.0 m
Data from the previous 72 hours. | See also: Recent months at Mount Lofty
Date/Time
CST
Temp
°C
App
Temp
°C
Dew
Point
°C
Rel
Hum
%
Delta-T
°C
Wind Press
QNH
hPa
Press
MSL
hPa
Rain since
9am
mm
Dir  Spd
km/h
Gust
km/h
Spd
kts
Gust
kts
28/04:00pm 7.1 3.8 6.4 95 0.3 WNW 13 22 7 12 - - 0.0
28/03:30pm 7.0 3.0 6.6 97 0.2 WNW 17 30 9 16 - - 0.0
28/03:00pm 7.0 3.0 6.7 98 0.1 WNW 17 28 9 15 - - 0.0
28/02:30pm 6.7 2.6 6.4 98 0.1 WNW 17 32 9 17 - - 0.0
28/02:00pm 6.8 3.5 6.5 98 0.1 WNW 13 22 7 12 - - 0.0
28/01:30pm 6.6 2.9 6.3 98 0.1 WNW 15 24 8 13 - - 0.0
28/01:00pm 6.7 2.6 6.4 98 0.1 WNW 17 28 9 15 - - 0.0
28/12:30pm 6.6 2.9 6.3 98 0.1 WNW 15 28 8 15 - - 0.0
28/12:00pm 6.5 2.8 6.2 98 0.1 WNW 15 26 8 14 - - 0.0
28/11:30am 6.7 2.6 6.4 98 0.1 WNW 17 32 9 17 - - 0.0
28/11:00am 6.6 2.5 6.3 98 0.1 WNW 17 32 9 17 - - 0.0
28/10:30am 6.7 3.4 6.4 98 0.1 W 13 26 7 14 - - 0.0
28/10:00am 6.4 3.0 6.1 98 0.1 W 13 26 7 14 - - 0.0
28/09:30am 6.3 2.5 6.0 98 0.1 W 15 30 8 16 - - 0.0
28/09:00am 6.3 2.2 6.0 98 0.1 WNW 17 28 9 15 - - 1.2
28/08:30am 6.5 3.2 6.2 98 0.1 WNW 13 28 7 15 - - 1.2
28/08:00am 6.3 2.5 6.0 98 0.1 WNW 15 26 8 14 - - 1.2
28/07:30am 6.3 2.5 6.0 98 0.1 WNW 15 26 8 14 - - 1.0
28/07:00am 6.3 2.9 6.0 98 0.1 WNW 13 24 7 13 - - 0.8
28/06:30am 6.2 3.2 5.9 98 0.1 W 11 22 6 12 - - 0.8
28/06:00am 6.2 3.2 5.9 98 0.1 W 11 26 6 14 - - 0.4
28/05:30am 6.1 2.7 5.8 98 0.1 WNW 13 24 7 13 - - 0.4
28/05:00am 5.9 2.8 5.6 98 0.1 W 11 24 6 13 - - 0.2
28/04:30am 6.0 2.6 5.7 98 0.1 W 13 20 7 11 - - 0.2
28/04:00am 6.1 2.7 5.8 98 0.1 WNW 13 24 7 13 - - 0.2
28/03:30am 6.3 3.3 6.0 98 0.1 WNW 11 20 6 11 - - 0.2
28/03:00am 6.1 3.1 5.8 98 0.1 W 11 20 6 11 - - 0.2
28/02:30am 6.0 2.6 5.7 98 0.1 WNW 13 26 7 14 - - 0.2
28/02:00am 6.0 2.9 5.7 98 0.1 W 11 22 6 12 - - 0.2
28/01:30am 6.0 2.6 5.7 98 0.1 W 13 22 7 12 - - 0.2
28/01:00am 5.8 2.3 5.5 98 0.1 W 13 24 7 13 - - 0.2
28/12:30am 5.9 2.1 5.6 98 0.1 WNW 15 26 8 14 - - 0.2
28/12:00am 5.9 2.1 5.6 98 0.1 WNW 15 24 8 13 - - 0.2
 
Date/Time
CST
Temp
°C
App
Temp
°C
Dew
Point
°C
Rel
Hum
%
Delta-T
°C
Wind Press
QNH
hPa
Press
MSL
hPa
Rain since
9am
mm
Dir  Spd
km/h
Gust
km/h
Spd
kts
Gust
kts
27/11:30pm 6.1 1.9 5.8 98 0.1 WNW 17 28 9 15 - - 0.2
27/11:00pm 6.2 2.0 5.9 98 0.1 W 17 26 9 14 - - 0.2
27/10:30pm 6.0 2.2 5.7 98 0.1 W 15 26 8 14 - - 0.2
27/10:00pm 5.7 2.2 5.3 97 0.2 WNW 13 20 7 11 - - 0.2
27/09:30pm 5.7 2.5 5.3 97 0.2 W 11 22 6 12 - - 0.2
27/09:00pm 6.1 2.7 5.7 97 0.2 WNW 13 26 7 14 - - 0.0
27/08:30pm 6.1 2.7 5.7 97 0.2 WNW 13 24 7 13 - - 0.0
27/08:00pm 5.9 2.7 5.3 96 0.3 W 11 20 6 11 - - 0.0
27/07:30pm 6.2 2.9 4.7 90 0.7 W 11 20 6 11 - - 0.0
27/07:00pm 6.2 2.8 4.0 86 1.0 W 11 22 6 12 - - 0.0
27/06:30pm 6.1 2.8 4.6 90 0.7 W 11 19 6 10 - - 0.0
27/06:00pm 6.0 2.7 4.8 92 0.5 W 11 24 6 13 - - 0.0
27/05:30pm 6.1 2.8 4.7 91 0.6 W 11 20 6 11 - - 0.0
27/05:00pm 6.1 3.2 4.6 90 0.7 W 9 20 5 11 - - 0.0
27/04:30pm 6.1 3.5 4.3 88 0.8 W 7 13 4 7 - - 0.0
27/04:00pm 6.5 3.9 4.0 84 1.1 W 7 13 4 7 - - 0.0
27/03:30pm 6.6 4.1 4.6 87 0.9 W 7 17 4 9 - - 0.0
27/03:00pm 6.4 3.8 4.1 85 1.0 W 7 15 4 8 - - 0.0
27/02:30pm 6.7 3.5 3.3 79 1.5 W 9 26 5 14 - - 0.0
27/02:00pm 6.6 3.5 3.6 81 1.3 W 9 22 5 12 - - 0.0
27/01:30pm 6.8 3.5 4.6 86 1.0 W 11 22 6 12 - - 0.0
27/01:00pm 7.0 3.7 4.5 84 1.1 W 11 22 6 12 - - 0.0
27/12:30pm 7.4 4.5 4.4 81 1.4 W 9 19 5 10 - - 0.0
27/12:00pm 7.4 4.7 5.5 88 0.9 W 9 15 5 8 - - 0.0
27/11:30am 7.0 4.7 5.9 93 0.5 W 7 22 4 12 - - 0.0
27/11:00am 7.2 5.3 6.5 95 0.3 WSW 6 13 3 7 - - 0.0
27/10:30am 6.5 3.8 5.6 94 0.4 WSW 9 19 5 10 - - 0.0
27/10:00am 6.2 3.5 5.6 96 0.3 SW 9 20 5 11 - - 0.0
27/09:30am 5.6 2.4 5.0 96 0.3 SW 11 24 6 13 - - 0.0
27/09:00am 5.5 2.3 4.9 96 0.3 WSW 11 20 6 11 - - 21.0
27/08:30am 5.1 1.8 4.7 97 0.2 WSW 11 22 6 12 - - 21.0
27/08:00am 5.0 1.7 4.6 97 0.2 WSW 11 22 6 12 - - 21.0
27/07:30am 4.3 1.3 3.9 97 0.2 WSW 9 20 5 11 - - 21.0
27/07:00am 4.3 1.3 3.9 97 0.2 WSW 9 19 5 10 - - 21.0
27/06:30am 4.3 0.5 4.0 98 0.1 WSW 13 22 7 12 - - 21.0
27/06:00am 4.0 0.2 3.7 98 0.1 WSW 13 30 7 16 - - 21.0
27/05:30am 4.6 0.5 4.3 98 0.1 WSW 15 35 8 19 - - 21.0
27/05:00am 5.2 0.8 4.9 98 0.1 WSW 17 43 9 23 - - 20.8
27/04:30am 5.2 0.4 4.9 98 0.1 WSW 19 37 10 20 - - 20.2
27/04:00am 5.8 1.9 5.5 98 0.1 WSW 15 33 8 18 - - 20.2
27/03:30am 5.9 1.7 5.6 98 0.1 WSW 17 39 9 21 - - 20.2
27/03:00am 6.1 1.3 5.8 98 0.1 W 20 41 11 22 - - 20.0
27/02:30am 5.8 1.9 5.5 98 0.1 W 15 33 8 18 - - 20.0
27/02:00am 6.2 2.0 5.9 98 0.1 W 17 30 9 16 - - 20.0
27/01:30am 5.8 1.9 5.5 98 0.1 W 15 28 8 15 - - 20.0
27/01:00am 6.2 2.0 5.9 98 0.1 W 17 32 9 17 - - 20.0
27/12:30am 6.6 2.1 6.3 98 0.1 W 19 33 10 18 - - 19.8
27/12:00am 6.2 2.0 5.9 98 0.1 W 17 33 9 18 - - 19.8
 
Date/Time
CST
Temp
°C
App
Temp
°C
Dew
Point
°C
Rel
Hum
%
Delta-T
°C
Wind Press
QNH
hPa
Press
MSL
hPa
Rain since
9am
mm
Dir  Spd
km/h
Gust
km/h
Spd
kts
Gust
kts
26/11:30pm 6.8 2.8 6.5 98 0.1 W 17 30 9 16 - - 19.8
26/11:00pm 6.6 2.1 6.3 98 0.1 W 19 35 10 19 - - 19.8
26/10:30pm 6.7 2.3 6.4 98 0.1 W 19 32 10 17 - - 19.8
26/10:00pm 6.1 1.3 5.8 98 0.1 W 20 35 11 19 - - 19.4
26/09:30pm 5.8 0.6 5.5 98 0.1 W 22 44 12 24 - - 18.2
26/09:00pm 5.9 1.1 5.6 98 0.1 W 20 35 11 19 - - 17.8
26/08:30pm 5.5 0.6 5.2 98 0.1 W 20 35 11 19 - - 17.8
26/08:00pm 6.6 2.0 6.3 98 0.1 W 20 41 11 22 - - 17.8
26/07:30pm 6.7 1.7 6.4 98 0.1 W 22 56 12 30 - - 17.8
26/07:00pm 6.5 1.1 6.2 98 0.1 WNW 24 41 13 22 - - 17.8
26/06:30pm 6.7 0.6 6.4 98 0.1 W 28 44 15 24 - - 17.4
26/06:00pm 6.4 -1.1 6.1 98 0.1 WNW 35 61 19 33 - - 15.0
26/05:30pm 6.7 -0.8 6.4 98 0.1 WNW 35 59 19 32 - - 12.2
26/05:00pm 6.3 -0.7 6.0 98 0.1 WNW 32 67 17 36 - - 8.4
26/04:30pm 6.0 -1.1 5.7 98 0.1 NW 32 52 17 28 - - 5.8
26/04:02pm 5.8 -1.3 5.5 98 0.1 WNW 32 52 17 28 - - 5.4
26/04:00pm 5.8 -1.5 5.5 98 0.1 WNW 33 52 18 28 - - 5.4
26/03:30pm 5.6 -0.8 5.3 98 0.1 WNW 28 48 15 26 - - 4.4
26/03:06pm 5.4 -1.0 5.1 98 0.1 WNW 28 52 15 28 - - 2.4
26/03:00pm 5.4 -0.3 5.1 98 0.1 WNW 24 41 13 22 - - 2.0
26/02:30pm 5.3 -0.8 5.0 98 0.1 WNW 26 46 14 25 - - 1.0
26/02:00pm 5.1 -1.4 4.8 98 0.1 NW 28 43 15 23 - - 0.4
26/01:30pm 4.8 -1.8 4.4 97 0.2 NW 28 50 15 27 - - 0.2
26/01:22pm 4.8 -1.8 4.4 97 0.2 NW 28 50 15 27 - - 0.0
26/01:00pm 4.8 -1.0 4.5 98 0.1 NW 24 41 13 22 - - 0.0
26/12:30pm 4.7 -1.1 4.4 98 0.1 NW 24 39 13 21 - - 0.0
26/12:00pm 4.8 -1.4 4.5 98 0.1 WNW 26 50 14 27 - - 0.0
26/11:57am 4.8 -1.7 4.5 98 0.1 WNW 28 52 15 28 - - 0.0
26/11:30am 5.0 -0.7 4.7 98 0.1 NW 24 41 13 22 - - 0.0
26/11:00am 4.8 -1.4 4.5 98 0.1 WNW 26 43 14 23 - - 0.0
26/10:48am 4.8 -1.7 4.5 98 0.1 WNW 28 48 15 26 - - 0.0
26/10:30am 4.7 -1.5 4.4 98 0.1 WNW 26 48 14 26 - - 0.0
26/10:00am 4.7 -0.7 4.4 98 0.1 WNW 22 41 12 22 - - 0.0
26/09:30am 4.5 -0.6 4.2 98 0.1 WNW 20 37 11 20 - - 0.0
26/09:00am 4.3 -1.2 4.0 98 0.1 WNW 22 35 12 19 - - 20.4
26/08:30am 4.2 -0.9 3.9 98 0.1 WNW 20 33 11 18 - - 20.4
26/08:00am 4.2 -0.4 3.9 98 0.1 WNW 17 26 9 14 - - 20.4
26/07:30am 4.1 -0.9 3.8 98 0.1 WNW 19 33 10 18 - - 20.4
26/07:00am 4.1 -0.5 3.8 98 0.1 WNW 17 30 9 16 - - 20.2
26/06:30am 4.1 -0.5 3.8 98 0.1 WNW 17 32 9 17 - - 20.2
26/06:00am 4.1 0.3 3.8 98 0.1 W 13 24 7 13 - - 20.2
26/05:30am 4.2 0.4 3.9 98 0.1 WNW 13 24 7 13 - - 20.2
26/05:00am 4.0 0.2 3.7 98 0.1 W 13 26 7 14 - - 20.2
26/04:30am 3.9 0.0 3.6 98 0.1 W 13 24 7 13 - - 20.2
26/04:00am 4.0 0.2 3.7 98 0.1 W 13 24 7 13 - - 20.2
26/03:30am 4.2 0.0 3.9 98 0.1 W 15 28 8 15 - - 20.2
26/03:00am 4.0 -0.2 3.7 98 0.1 W 15 22 8 12 - - 20.2
26/02:30am 3.8 -0.1 3.4 97 0.2 W 13 28 7 15 - - 20.2
26/02:00am 3.8 -0.5 3.4 97 0.2 W 15 32 8 17 - - 20.2
26/01:30am 3.9 -0.4 3.5 97 0.2 W 15 32 8 17 - - 20.2
26/01:00am 3.9 -0.4 3.3 96 0.3 W 15 28 8 15 - - 20.2
26/12:30am 4.0 -0.3 3.4 96 0.3 W 15 30 8 16 - - 20.2
26/12:00am 4.0 -0.6 3.6 97 0.2 W 17 30 9 16 - - 20.2
 
Date/Time
CST
Temp
°C
App
Temp
°C
Dew
Point
°C
Rel
Hum
%
Delta-T
°C
Wind Press
QNH
hPa
Press
MSL
hPa
Rain since
9am
mm
Dir  Spd
km/h
Gust
km/h
Spd
kts
Gust
kts
25/11:30pm 3.5 -0.4 3.2 98 0.1 W 13 22 7 12 - - 20.2
25/11:00pm 3.6 0.1 3.3 98 0.1 W 11 20 6 11 - - 20.2
25/10:30pm 3.3 -1.0 3.0 98 0.1 W 15 26 8 14 - - 20.2
25/10:00pm 3.9 -0.3 3.6 98 0.1 W 15 35 8 19 - - 20.0
25/09:30pm 4.1 0.3 3.8 98 0.1 W 13 26 7 14 - - 20.0
25/09:00pm 3.9 -1.1 3.6 98 0.1 W 19 33 10 18 - - 20.0
25/08:30pm 5.2 0.8 4.6 96 0.3 W 17 32 9 17 - - 19.6
25/08:00pm 4.9 0.0 4.3 96 0.3 W 19 32 10 17 - - 19.6
25/07:30pm 4.3 -0.6 4.0 98 0.1 W 19 30 10 16 - - 19.6
25/07:00pm 5.6 0.9 5.3 98 0.1 W 19 32 10 17 - - 19.6
25/06:30pm 5.5 0.6 5.2 98 0.1 W 20 33 11 18 - - 19.4
25/06:00pm 5.9 1.3 5.6 98 0.1 W 19 46 10 25 - - 17.6
25/05:30pm 5.7 1.1 5.4 98 0.1 W 19 37 10 20 - - 17.4
25/05:00pm 6.2 1.5 5.9 98 0.1 W 20 39 11 21 - - 17.4
25/04:30pm 7.0 2.4 6.7 98 0.1 W 20 48 11 26 - - 17.4
25/04:04pm 6.8 0.7 6.5 98 0.1 W 28 46 15 25 - - 17.0

Latest Capital City Observations: Canberra | Sydney | Melbourne | Brisbane | Adelaide | Perth | Hobart | Darwin

Other Formats:

Comma delimited format used in spreadsheet applications
http://www.bom.gov.au/fwo/IDS60901/IDS60901.95678.axf

JavaScript Object Notation format (JSON) in row-major order
http://www.bom.gov.au/fwo/IDS60901/IDS60901.95678.json